sensor_id;sensor_type;location;lat;lon;timestamp;P1;durP1;ratioP1;P2;durP2;ratioP2
787;SDS011;16074;42.708;23.312;2023-05-14T00:00:27;6.10;;;5.70;;
787;SDS011;16074;42.708;23.312;2023-05-14T00:02:55;5.87;;;5.40;;
787;SDS011;16074;42.708;23.312;2023-05-14T00:05:24;5.22;;;4.93;;
787;SDS011;16074;42.708;23.312;2023-05-14T00:07:52;6.23;;;5.67;;
787;SDS011;16074;42.708;23.312;2023-05-14T00:10:20;6.13;;;5.60;;
787;SDS011;16074;42.708;23.312;2023-05-14T00:12:49;5.97;;;5.57;;
787;SDS011;16074;42.708;23.312;2023-05-14T00:15:18;5.77;;;5.30;;
787;SDS011;16074;42.708;23.312;2023-05-14T00:17:47;5.63;;;5.23;;
787;SDS011;16074;42.708;23.312;2023-05-14T00:20:16;6.33;;;5.60;;
787;SDS011;16074;42.708;23.312;2023-05-14T00:22:44;6.47;;;6.05;;
787;SDS011;16074;42.708;23.312;2023-05-14T00:25:12;6.27;;;5.37;;
787;SDS011;16074;42.708;23.312;2023-05-14T00:27:40;6.50;;;6.00;;
787;SDS011;16074;42.708;23.312;2023-05-14T00:30:09;5.37;;;4.87;;
787;SDS011;16074;42.708;23.312;2023-05-14T00:32:38;5.70;;;5.13;;
787;SDS011;16074;42.708;23.312;2023-05-14T00:35:08;5.30;;;4.90;;
787;SDS011;16074;42.708;23.312;2023-05-14T00:37:36;6.90;;;5.37;;
787;SDS011;16074;42.708;23.312;2023-05-14T00:40:06;6.20;;;5.60;;
787;SDS011;16074;42.708;23.312;2023-05-14T00:42:37;6.20;;;5.70;;
787;SDS011;16074;42.708;23.312;2023-05-14T00:45:06;4.90;;;4.50;;
787;SDS011;16074;42.708;23.312;2023-05-14T00:47:35;6.72;;;6.05;;
787;SDS011;16074;42.708;23.312;2023-05-14T00:50:05;5.72;;;5.30;;
787;SDS011;16074;42.708;23.312;2023-05-14T00:52:36;5.72;;;5.32;;
787;SDS011;16074;42.708;23.312;2023-05-14T00:55:05;5.33;;;4.90;;
787;SDS011;16074;42.708;23.312;2023-05-14T00:57:34;5.40;;;4.57;;
787;SDS011;16074;42.708;23.312;2023-05-14T01:00:04;4.73;;;4.33;;
787;SDS011;16074;42.708;23.312;2023-05-14T01:02:33;6.50;;;5.10;;
787;SDS011;16074;42.708;23.312;2023-05-14T01:05:02;5.15;;;4.75;;
787;SDS011;16074;42.708;23.312;2023-05-14T01:07:32;5.30;;;4.90;;
787;SDS011;16074;42.708;23.312;2023-05-14T01:10:12;4.80;;;4.50;;
787;SDS011;16074;42.708;23.312;2023-05-14T01:12:45;4.30;;;4.00;;
787;SDS011;16074;42.708;23.312;2023-05-14T01:15:21;4.10;;;3.90;;
787;SDS011;16074;42.708;23.312;2023-05-14T01:17:53;4.37;;;3.90;;
787;SDS011;16074;42.708;23.312;2023-05-14T01:20:26;4.88;;;4.47;;
787;SDS011;16074;42.708;23.312;2023-05-14T01:22:55;4.15;;;3.95;;
787;SDS011;16074;42.708;23.312;2023-05-14T01:25:24;4.82;;;4.43;;
787;SDS011;16074;42.708;23.312;2023-05-14T01:27:54;4.60;;;4.10;;
787;SDS011;16074;42.708;23.312;2023-05-14T01:30:28;4.45;;;4.15;;
787;SDS011;16074;42.708;23.312;2023-05-14T01:33:01;4.10;;;3.83;;
787;SDS011;16074;42.708;23.312;2023-05-14T01:35:33;3.80;;;3.60;;
787;SDS011;16074;42.708;23.312;2023-05-14T01:38:03;4.38;;;3.90;;
787;SDS011;16074;42.708;23.312;2023-05-14T01:40:35;4.10;;;3.80;;
787;SDS011;16074;42.708;23.312;2023-05-14T01:43:03;5.10;;;4.57;;
787;SDS011;16074;42.708;23.312;2023-05-14T01:45:34;3.70;;;3.40;;
787;SDS011;16074;42.708;23.312;2023-05-14T01:48:03;6.40;;;4.97;;
787;SDS011;16074;42.708;23.312;2023-05-14T01:50:32;4.75;;;4.45;;
787;SDS011;16074;42.708;23.312;2023-05-14T01:53:03;6.05;;;4.00;;
787;SDS011;16074;42.708;23.312;2023-05-14T01:55:32;6.78;;;3.88;;
787;SDS011;16074;42.708;23.312;2023-05-14T01:58:00;5.32;;;4.35;;
787;SDS011;16074;42.708;23.312;2023-05-14T02:00:28;3.85;;;3.65;;
787;SDS011;16074;42.708;23.312;2023-05-14T02:02:57;3.15;;;2.92;;
787;SDS011;16074;42.708;23.312;2023-05-14T02:05:25;3.42;;;3.22;;
787;SDS011;16074;42.708;23.312;2023-05-14T02:07:54;3.92;;;3.67;;
787;SDS011;16074;42.708;23.312;2023-05-14T02:10:24;4.18;;;3.72;;
787;SDS011;16074;42.708;23.312;2023-05-14T02:12:53;4.75;;;4.30;;
787;SDS011;16074;42.708;23.312;2023-05-14T02:15:22;4.72;;;4.38;;
787;SDS011;16074;42.708;23.312;2023-05-14T02:17:50;6.03;;;3.70;;
787;SDS011;16074;42.708;23.312;2023-05-14T02:20:19;3.88;;;3.67;;
787;SDS011;16074;42.708;23.312;2023-05-14T02:22:48;5.00;;;4.00;;
787;SDS011;16074;42.708;23.312;2023-05-14T02:25:16;4.10;;;3.78;;
787;SDS011;16074;42.708;23.312;2023-05-14T02:27:46;4.50;;;4.10;;
787;SDS011;16074;42.708;23.312;2023-05-14T02:30:15;4.00;;;3.80;;
787;SDS011;16074;42.708;23.312;2023-05-14T02:32:43;4.90;;;4.60;;
787;SDS011;16074;42.708;23.312;2023-05-14T02:35:11;4.30;;;4.00;;
787;SDS011;16074;42.708;23.312;2023-05-14T02:37:40;5.15;;;4.82;;
787;SDS011;16074;42.708;23.312;2023-05-14T02:40:08;4.93;;;4.53;;
787;SDS011;16074;42.708;23.312;2023-05-14T02:42:37;3.90;;;3.55;;
787;SDS011;16074;42.708;23.312;2023-05-14T02:45:07;4.57;;;4.20;;
787;SDS011;16074;42.708;23.312;2023-05-14T02:47:36;4.60;;;4.20;;
787;SDS011;16074;42.708;23.312;2023-05-14T02:50:05;4.60;;;4.15;;
787;SDS011;16074;42.708;23.312;2023-05-14T02:52:34;3.80;;;3.50;;
787;SDS011;16074;42.708;23.312;2023-05-14T02:55:03;4.40;;;4.00;;
787;SDS011;16074;42.708;23.312;2023-05-14T02:57:32;4.15;;;3.85;;
787;SDS011;16074;42.708;23.312;2023-05-14T03:00:00;5.50;;;4.07;;
787;SDS011;16074;42.708;23.312;2023-05-14T03:02:32;4.80;;;4.38;;
787;SDS011;16074;42.708;23.312;2023-05-14T03:05:02;4.88;;;3.65;;
787;SDS011;16074;42.708;23.312;2023-05-14T03:07:30;4.63;;;4.15;;
787;SDS011;16074;42.708;23.312;2023-05-14T03:09:59;4.03;;;3.72;;
787;SDS011;16074;42.708;23.312;2023-05-14T03:12:27;4.25;;;3.95;;
787;SDS011;16074;42.708;23.312;2023-05-14T03:14:56;4.65;;;4.28;;
787;SDS011;16074;42.708;23.312;2023-05-14T03:17:24;4.20;;;3.80;;
787;SDS011;16074;42.708;23.312;2023-05-14T03:19:54;4.70;;;4.40;;
787;SDS011;16074;42.708;23.312;2023-05-14T03:22:22;4.45;;;4.15;;
787;SDS011;16074;42.708;23.312;2023-05-14T03:24:50;5.68;;;5.18;;
787;SDS011;16074;42.708;23.312;2023-05-14T03:27:19;5.15;;;4.35;;
787;SDS011;16074;42.708;23.312;2023-05-14T03:29:47;4.30;;;4.10;;
787;SDS011;16074;42.708;23.312;2023-05-14T03:32:16;6.20;;;4.22;;
787;SDS011;16074;42.708;23.312;2023-05-14T03:34:45;5.15;;;4.78;;
787;SDS011;16074;42.708;23.312;2023-05-14T03:37:14;4.70;;;4.30;;
787;SDS011;16074;42.708;23.312;2023-05-14T03:39:43;6.03;;;5.15;;
787;SDS011;16074;42.708;23.312;2023-05-14T03:42:11;6.47;;;5.00;;
787;SDS011;16074;42.708;23.312;2023-05-14T03:44:39;5.63;;;5.18;;
787;SDS011;16074;42.708;23.312;2023-05-14T03:47:08;5.07;;;4.68;;
787;SDS011;16074;42.708;23.312;2023-05-14T03:49:36;7.00;;;5.25;;
787;SDS011;16074;42.708;23.312;2023-05-14T03:52:07;6.75;;;4.97;;
787;SDS011;16074;42.708;23.312;2023-05-14T03:54:37;4.65;;;4.30;;
787;SDS011;16074;42.708;23.312;2023-05-14T03:57:06;5.00;;;4.60;;
787;SDS011;16074;42.708;23.312;2023-05-14T03:59:35;5.45;;;5.00;;
787;SDS011;16074;42.708;23.312;2023-05-14T04:02:03;5.30;;;4.80;;
787;SDS011;16074;42.708;23.312;2023-05-14T04:04:31;5.43;;;4.60;;
787;SDS011;16074;42.708;23.312;2023-05-14T04:07:01;5.50;;;5.10;;
787;SDS011;16074;42.708;23.312;2023-05-14T04:09:29;4.93;;;4.53;;
787;SDS011;16074;42.708;23.312;2023-05-14T04:11:59;8.40;;;5.38;;
787;SDS011;16074;42.708;23.312;2023-05-14T04:14:27;6.07;;;5.47;;
787;SDS011;16074;42.708;23.312;2023-05-14T04:16:56;5.47;;;4.97;;
787;SDS011;16074;42.708;23.312;2023-05-14T04:19:26;4.80;;;4.43;;
787;SDS011;16074;42.708;23.312;2023-05-14T04:21:54;6.88;;;4.82;;
787;SDS011;16074;42.708;23.312;2023-05-14T04:24:22;5.72;;;5.20;;
787;SDS011;16074;42.708;23.312;2023-05-14T04:26:51;7.30;;;4.63;;
787;SDS011;16074;42.708;23.312;2023-05-14T04:29:21;4.88;;;4.57;;
787;SDS011;16074;42.708;23.312;2023-05-14T04:31:49;6.10;;;5.43;;
787;SDS011;16074;42.708;23.312;2023-05-14T04:34:17;8.88;;;6.55;;
787;SDS011;16074;42.708;23.312;2023-05-14T04:36:45;8.40;;;6.93;;
787;SDS011;16074;42.708;23.312;2023-05-14T04:39:14;7.88;;;7.13;;
787;SDS011;16074;42.708;23.312;2023-05-14T04:41:42;6.40;;;5.90;;
787;SDS011;16074;42.708;23.312;2023-05-14T04:44:11;5.57;;;5.05;;
787;SDS011;16074;42.708;23.312;2023-05-14T04:46:41;7.78;;;7.03;;
787;SDS011;16074;42.708;23.312;2023-05-14T04:49:09;7.63;;;6.93;;
787;SDS011;16074;42.708;23.312;2023-05-14T04:51:37;9.18;;;7.85;;
787;SDS011;16074;42.708;23.312;2023-05-14T04:54:06;11.40;;;8.18;;
787;SDS011;16074;42.708;23.312;2023-05-14T04:56:34;7.60;;;6.35;;
787;SDS011;16074;42.708;23.312;2023-05-14T04:59:02;6.35;;;5.85;;
787;SDS011;16074;42.708;23.312;2023-05-14T05:01:31;9.20;;;6.70;;
787;SDS011;16074;42.708;23.312;2023-05-14T05:04:00;8.00;;;6.85;;
787;SDS011;16074;42.708;23.312;2023-05-14T05:06:29;6.70;;;5.50;;
787;SDS011;16074;42.708;23.312;2023-05-14T05:08:58;7.53;;;6.93;;
787;SDS011;16074;42.708;23.312;2023-05-14T05:11:28;9.07;;;6.70;;
787;SDS011;16074;42.708;23.312;2023-05-14T05:13:56;7.22;;;6.00;;
787;SDS011;16074;42.708;23.312;2023-05-14T05:16:24;6.03;;;5.47;;
787;SDS011;16074;42.708;23.312;2023-05-14T05:18:52;10.70;;;7.95;;
787;SDS011;16074;42.708;23.312;2023-05-14T05:21:22;5.78;;;5.38;;
787;SDS011;16074;42.708;23.312;2023-05-14T05:23:50;7.70;;;7.05;;
787;SDS011;16074;42.708;23.312;2023-05-14T05:26:19;6.82;;;6.20;;
787;SDS011;16074;42.708;23.312;2023-05-14T05:28:47;6.38;;;5.78;;
787;SDS011;16074;42.708;23.312;2023-05-14T05:31:15;7.40;;;6.70;;
787;SDS011;16074;42.708;23.312;2023-05-14T05:33:45;14.38;;;7.55;;
787;SDS011;16074;42.708;23.312;2023-05-14T05:36:14;9.02;;;7.75;;
787;SDS011;16074;42.708;23.312;2023-05-14T05:38:43;8.50;;;7.80;;
787;SDS011;16074;42.708;23.312;2023-05-14T05:41:11;8.45;;;7.63;;
787;SDS011;16074;42.708;23.312;2023-05-14T05:43:40;10.38;;;9.20;;
787;SDS011;16074;42.708;23.312;2023-05-14T05:46:08;13.50;;;8.38;;
787;SDS011;16074;42.708;23.312;2023-05-14T05:48:36;8.73;;;7.90;;
787;SDS011;16074;42.708;23.312;2023-05-14T05:51:04;11.55;;;9.23;;
787;SDS011;16074;42.708;23.312;2023-05-14T05:53:33;10.18;;;9.20;;
787;SDS011;16074;42.708;23.312;2023-05-14T05:56:02;10.93;;;9.85;;
787;SDS011;16074;42.708;23.312;2023-05-14T05:58:32;9.27;;;8.48;;
787;SDS011;16074;42.708;23.312;2023-05-14T06:01:00;8.90;;;8.15;;
787;SDS011;16074;42.708;23.312;2023-05-14T06:03:28;9.27;;;8.43;;
787;SDS011;16074;42.708;23.312;2023-05-14T06:05:56;9.15;;;8.45;;
787;SDS011;16074;42.708;23.312;2023-05-14T06:08:24;10.93;;;9.70;;
787;SDS011;16074;42.708;23.312;2023-05-14T06:10:53;10.77;;;9.88;;
787;SDS011;16074;42.708;23.312;2023-05-14T06:13:22;9.68;;;8.73;;
787;SDS011;16074;42.708;23.312;2023-05-14T06:15:51;11.70;;;10.70;;
787;SDS011;16074;42.708;23.312;2023-05-14T06:18:19;10.98;;;9.88;;
787;SDS011;16074;42.708;23.312;2023-05-14T06:20:47;10.43;;;9.70;;
787;SDS011;16074;42.708;23.312;2023-05-14T06:23:15;11.18;;;10.07;;
787;SDS011;16074;42.708;23.312;2023-05-14T06:25:43;10.60;;;9.65;;
787;SDS011;16074;42.708;23.312;2023-05-14T06:28:13;12.93;;;11.15;;
787;SDS011;16074;42.708;23.312;2023-05-14T06:30:43;13.38;;;11.50;;
787;SDS011;16074;42.708;23.312;2023-05-14T06:33:11;14.05;;;12.90;;
787;SDS011;16074;42.708;23.312;2023-05-14T06:35:40;11.85;;;10.85;;
787;SDS011;16074;42.708;23.312;2023-05-14T06:38:08;14.35;;;12.70;;
787;SDS011;16074;42.708;23.312;2023-05-14T06:40:37;16.40;;;14.70;;
787;SDS011;16074;42.708;23.312;2023-05-14T06:43:05;18.35;;;13.63;;
787;SDS011;16074;42.708;23.312;2023-05-14T06:45:33;15.77;;;12.25;;
787;SDS011;16074;42.708;23.312;2023-05-14T06:48:03;12.43;;;11.35;;
787;SDS011;16074;42.708;23.312;2023-05-14T06:50:31;12.20;;;11.00;;
787;SDS011;16074;42.708;23.312;2023-05-14T06:52:59;19.88;;;14.48;;
787;SDS011;16074;42.708;23.312;2023-05-14T06:55:28;14.45;;;13.15;;
787;SDS011;16074;42.708;23.312;2023-05-14T06:57:56;17.13;;;14.02;;
787;SDS011;16074;42.708;23.312;2023-05-14T07:00:24;17.27;;;15.13;;
787;SDS011;16074;42.708;23.312;2023-05-14T07:02:53;17.05;;;14.80;;
787;SDS011;16074;42.708;23.312;2023-05-14T07:05:23;24.13;;;16.33;;
787;SDS011;16074;42.708;23.312;2023-05-14T07:07:51;18.63;;;16.92;;
787;SDS011;16074;42.708;23.312;2023-05-14T07:10:20;17.52;;;15.68;;
787;SDS011;16074;42.708;23.312;2023-05-14T07:12:48;19.20;;;16.67;;
787;SDS011;16074;42.708;23.312;2023-05-14T07:15:17;20.40;;;18.35;;
787;SDS011;16074;42.708;23.312;2023-05-14T07:17:45;21.63;;;19.52;;
787;SDS011;16074;42.708;23.312;2023-05-14T07:20:14;19.05;;;17.05;;
787;SDS011;16074;42.708;23.312;2023-05-14T07:22:43;19.70;;;17.70;;
787;SDS011;16074;42.708;23.312;2023-05-14T07:25:11;17.25;;;15.65;;
787;SDS011;16074;42.708;23.312;2023-05-14T07:27:40;17.80;;;16.05;;
787;SDS011;16074;42.708;23.312;2023-05-14T07:30:08;18.50;;;14.77;;
787;SDS011;16074;42.708;23.312;2023-05-14T07:32:37;15.75;;;14.30;;
787;SDS011;16074;42.708;23.312;2023-05-14T07:35:05;16.83;;;15.18;;
787;SDS011;16074;42.708;23.312;2023-05-14T07:37:34;17.45;;;15.75;;
787;SDS011;16074;42.708;23.312;2023-05-14T07:40:05;17.83;;;16.13;;
787;SDS011;16074;42.708;23.312;2023-05-14T07:42:34;18.77;;;16.88;;
787;SDS011;16074;42.708;23.312;2023-05-14T07:45:03;19.65;;;17.27;;
787;SDS011;16074;42.708;23.312;2023-05-14T07:47:33;20.48;;;18.25;;
787;SDS011;16074;42.708;23.312;2023-05-14T07:50:01;18.20;;;16.40;;
787;SDS011;16074;42.708;23.312;2023-05-14T07:52:31;20.92;;;18.92;;
787;SDS011;16074;42.708;23.312;2023-05-14T07:54:59;16.40;;;14.80;;
787;SDS011;16074;42.708;23.312;2023-05-14T07:57:29;17.95;;;15.80;;
787;SDS011;16074;42.708;23.312;2023-05-14T07:59:57;18.17;;;16.52;;
787;SDS011;16074;42.708;23.312;2023-05-14T08:02:25;17.85;;;16.15;;
787;SDS011;16074;42.708;23.312;2023-05-14T08:04:54;16.80;;;15.20;;
787;SDS011;16074;42.708;23.312;2023-05-14T08:07:22;16.55;;;14.98;;
787;SDS011;16074;42.708;23.312;2023-05-14T08:09:51;18.00;;;16.05;;
787;SDS011;16074;42.708;23.312;2023-05-14T08:12:19;16.55;;;14.85;;
787;SDS011;16074;42.708;23.312;2023-05-14T08:14:49;16.85;;;15.15;;
787;SDS011;16074;42.708;23.312;2023-05-14T08:17:17;15.68;;;14.07;;
787;SDS011;16074;42.708;23.312;2023-05-14T08:19:46;17.55;;;15.93;;
787;SDS011;16074;42.708;23.312;2023-05-14T08:22:15;16.38;;;14.32;;
787;SDS011;16074;42.708;23.312;2023-05-14T08:24:43;18.77;;;16.90;;
787;SDS011;16074;42.708;23.312;2023-05-14T08:27:11;18.27;;;16.58;;
787;SDS011;16074;42.708;23.312;2023-05-14T08:29:40;17.73;;;15.40;;
787;SDS011;16074;42.708;23.312;2023-05-14T08:32:09;18.35;;;16.48;;
787;SDS011;16074;42.708;23.312;2023-05-14T08:34:49;19.33;;;17.20;;
787;SDS011;16074;42.708;23.312;2023-05-14T08:37:18;19.83;;;17.70;;
787;SDS011;16074;42.708;23.312;2023-05-14T08:39:46;18.80;;;16.83;;
787;SDS011;16074;42.708;23.312;2023-05-14T08:42:14;19.50;;;17.60;;
787;SDS011;16074;42.708;23.312;2023-05-14T08:44:48;21.35;;;19.10;;
787;SDS011;16074;42.708;23.312;2023-05-14T08:47:23;21.23;;;19.20;;
787;SDS011;16074;42.708;23.312;2023-05-14T08:49:53;22.98;;;20.00;;
787;SDS011;16074;42.708;23.312;2023-05-14T08:52:28;20.13;;;18.13;;
787;SDS011;16074;42.708;23.312;2023-05-14T08:54:57;20.63;;;18.42;;
787;SDS011;16074;42.708;23.312;2023-05-14T08:57:27;18.25;;;16.30;;
787;SDS011;16074;42.708;23.312;2023-05-14T08:59:56;16.80;;;14.57;;
787;SDS011;16074;42.708;23.312;2023-05-14T09:02:27;17.88;;;15.95;;
787;SDS011;16074;42.708;23.312;2023-05-14T09:04:57;18.17;;;15.75;;
787;SDS011;16074;42.708;23.312;2023-05-14T09:07:27;19.02;;;16.88;;
787;SDS011;16074;42.708;23.312;2023-05-14T09:09:55;21.13;;;18.45;;
787;SDS011;16074;42.708;23.312;2023-05-14T09:12:23;18.38;;;16.45;;
787;SDS011;16074;42.708;23.312;2023-05-14T09:14:52;19.90;;;17.85;;
787;SDS011;16074;42.708;23.312;2023-05-14T09:17:20;20.95;;;18.95;;
787;SDS011;16074;42.708;23.312;2023-05-14T09:19:51;20.40;;;18.52;;
787;SDS011;16074;42.708;23.312;2023-05-14T09:22:19;19.35;;;17.55;;
787;SDS011;16074;42.708;23.312;2023-05-14T09:25:00;22.00;;;17.48;;
787;SDS011;16074;42.708;23.312;2023-05-14T09:27:31;20.58;;;18.50;;
787;SDS011;16074;42.708;23.312;2023-05-14T09:30:06;20.27;;;18.25;;
787;SDS011;16074;42.708;23.312;2023-05-14T09:32:36;21.25;;;19.17;;
787;SDS011;16074;42.708;23.312;2023-05-14T09:35:11;22.73;;;19.60;;
787;SDS011;16074;42.708;23.312;2023-05-14T09:37:44;20.63;;;18.58;;
787;SDS011;16074;42.708;23.312;2023-05-14T09:40:14;19.30;;;17.40;;
787;SDS011;16074;42.708;23.312;2023-05-14T09:42:43;20.52;;;18.52;;
787;SDS011;16074;42.708;23.312;2023-05-14T09:45:14;23.80;;;20.08;;
787;SDS011;16074;42.708;23.312;2023-05-14T09:47:42;21.30;;;19.10;;
787;SDS011;16074;42.708;23.312;2023-05-14T09:50:13;22.45;;;20.08;;
787;SDS011;16074;42.708;23.312;2023-05-14T09:52:41;22.38;;;19.95;;
787;SDS011;16074;42.708;23.312;2023-05-14T09:55:09;22.92;;;20.63;;
787;SDS011;16074;42.708;23.312;2023-05-14T09:57:38;22.05;;;19.77;;
787;SDS011;16074;42.708;23.312;2023-05-14T10:00:07;22.35;;;20.20;;
787;SDS011;16074;42.708;23.312;2023-05-14T10:02:38;23.27;;;20.88;;
787;SDS011;16074;42.708;23.312;2023-05-14T10:05:09;24.20;;;21.85;;
787;SDS011;16074;42.708;23.312;2023-05-14T10:07:41;23.30;;;20.80;;
787;SDS011;16074;42.708;23.312;2023-05-14T10:10:14;22.33;;;20.23;;
787;SDS011;16074;42.708;23.312;2023-05-14T10:12:47;21.85;;;19.75;;
787;SDS011;16074;42.708;23.312;2023-05-14T10:15:20;21.55;;;19.65;;
787;SDS011;16074;42.708;23.312;2023-05-14T10:17:54;21.35;;;19.15;;
787;SDS011;16074;42.708;23.312;2023-05-14T10:20:25;20.65;;;18.48;;
787;SDS011;16074;42.708;23.312;2023-05-14T10:22:56;21.13;;;19.23;;
787;SDS011;16074;42.708;23.312;2023-05-14T10:25:25;22.50;;;20.27;;
787;SDS011;16074;42.708;23.312;2023-05-14T10:27:54;24.52;;;22.13;;
787;SDS011;16074;42.708;23.312;2023-05-14T10:30:23;25.77;;;23.00;;
787;SDS011;16074;42.708;23.312;2023-05-14T10:33:04;25.20;;;22.23;;
787;SDS011;16074;42.708;23.312;2023-05-14T10:35:49;27.42;;;24.60;;
787;SDS011;16074;42.708;23.312;2023-05-14T10:38:22;26.98;;;24.10;;
787;SDS011;16074;42.708;23.312;2023-05-14T10:40:56;26.95;;;24.25;;
787;SDS011;16074;42.708;23.312;2023-05-14T10:43:27;25.88;;;23.23;;
787;SDS011;16074;42.708;23.312;2023-05-14T10:45:57;26.92;;;23.50;;
787;SDS011;16074;42.708;23.312;2023-05-14T10:48:26;25.65;;;23.05;;
787;SDS011;16074;42.708;23.312;2023-05-14T10:50:55;26.20;;;23.65;;
787;SDS011;16074;42.708;23.312;2023-05-14T10:53:32;23.05;;;20.55;;
787;SDS011;16074;42.708;23.312;2023-05-14T10:56:02;23.25;;;21.00;;
787;SDS011;16074;42.708;23.312;2023-05-14T10:58:33;24.83;;;22.33;;
787;SDS011;16074;42.708;23.312;2023-05-14T11:01:02;25.77;;;23.10;;
787;SDS011;16074;42.708;23.312;2023-05-14T11:03:37;24.90;;;22.40;;
787;SDS011;16074;42.708;23.312;2023-05-14T11:06:08;24.80;;;22.23;;
787;SDS011;16074;42.708;23.312;2023-05-14T11:08:40;24.23;;;21.90;;
787;SDS011;16074;42.708;23.312;2023-05-14T11:11:09;23.17;;;21.05;;
787;SDS011;16074;42.708;23.312;2023-05-14T11:13:37;23.02;;;20.73;;
787;SDS011;16074;42.708;23.312;2023-05-14T11:16:06;25.15;;;22.55;;
787;SDS011;16074;42.708;23.312;2023-05-14T11:18:52;25.63;;;23.27;;
787;SDS011;16074;42.708;23.312;2023-05-14T11:21:21;24.15;;;21.75;;
787;SDS011;16074;42.708;23.312;2023-05-14T11:23:51;24.52;;;22.23;;
787;SDS011;16074;42.708;23.312;2023-05-14T11:26:22;24.40;;;21.92;;
787;SDS011;16074;42.708;23.312;2023-05-14T11:28:51;24.90;;;22.60;;
787;SDS011;16074;42.708;23.312;2023-05-14T11:31:20;25.23;;;22.70;;
787;SDS011;16074;42.708;23.312;2023-05-14T11:33:50;24.20;;;22.00;;
787;SDS011;16074;42.708;23.312;2023-05-14T11:36:19;23.40;;;21.10;;
787;SDS011;16074;42.708;23.312;2023-05-14T11:38:47;25.55;;;23.02;;
787;SDS011;16074;42.708;23.312;2023-05-14T11:41:19;26.25;;;23.50;;
787;SDS011;16074;42.708;23.312;2023-05-14T11:43:48;24.52;;;22.00;;
787;SDS011;16074;42.708;23.312;2023-05-14T11:46:17;24.15;;;21.75;;
787;SDS011;16074;42.708;23.312;2023-05-14T11:48:46;25.88;;;23.13;;
787;SDS011;16074;42.708;23.312;2023-05-14T11:51:14;24.50;;;22.15;;
787;SDS011;16074;42.708;23.312;2023-05-14T11:53:43;24.63;;;22.33;;
787;SDS011;16074;42.708;23.312;2023-05-14T11:56:12;26.23;;;23.63;;
787;SDS011;16074;42.708;23.312;2023-05-14T11:58:47;26.00;;;23.50;;
787;SDS011;16074;42.708;23.312;2023-05-14T12:01:16;26.67;;;23.98;;
787;SDS011;16074;42.708;23.312;2023-05-14T12:03:45;24.70;;;22.05;;
787;SDS011;16074;42.708;23.312;2023-05-14T12:06:13;24.88;;;22.42;;
787;SDS011;16074;42.708;23.312;2023-05-14T12:08:41;26.23;;;23.20;;
787;SDS011;16074;42.708;23.312;2023-05-14T12:11:10;25.05;;;22.75;;
787;SDS011;16074;42.708;23.312;2023-05-14T12:13:38;23.40;;;20.98;;
787;SDS011;16074;42.708;23.312;2023-05-14T12:16:07;21.75;;;19.55;;
787;SDS011;16074;42.708;23.312;2023-05-14T12:18:36;20.55;;;18.65;;
787;SDS011;16074;42.708;23.312;2023-05-14T12:21:04;22.27;;;20.17;;
787;SDS011;16074;42.708;23.312;2023-05-14T12:23:34;24.15;;;21.83;;
787;SDS011;16074;42.708;23.312;2023-05-14T12:26:05;22.77;;;20.75;;
787;SDS011;16074;42.708;23.312;2023-05-14T12:28:37;22.02;;;20.08;;
787;SDS011;16074;42.708;23.312;2023-05-14T12:31:10;19.27;;;17.48;;
787;SDS011;16074;42.708;23.312;2023-05-14T12:33:39;19.27;;;17.63;;
787;SDS011;16074;42.708;23.312;2023-05-14T12:36:07;18.65;;;17.08;;
787;SDS011;16074;42.708;23.312;2023-05-14T12:38:47;15.20;;;13.77;;
787;SDS011;16074;42.708;23.312;2023-05-14T12:41:16;17.05;;;15.52;;
787;SDS011;16074;42.708;23.312;2023-05-14T12:43:44;16.27;;;14.68;;
787;SDS011;16074;42.708;23.312;2023-05-14T12:46:16;17.20;;;15.70;;
787;SDS011;16074;42.708;23.312;2023-05-14T12:48:44;18.25;;;16.50;;
787;SDS011;16074;42.708;23.312;2023-05-14T12:51:12;19.73;;;17.65;;
787;SDS011;16074;42.708;23.312;2023-05-14T12:53:41;18.42;;;16.77;;
787;SDS011;16074;42.708;23.312;2023-05-14T12:56:09;16.95;;;15.30;;
787;SDS011;16074;42.708;23.312;2023-05-14T12:58:38;16.70;;;15.20;;
787;SDS011;16074;42.708;23.312;2023-05-14T13:01:06;19.98;;;17.90;;
787;SDS011;16074;42.708;23.312;2023-05-14T13:03:36;19.27;;;17.48;;
787;SDS011;16074;42.708;23.312;2023-05-14T13:06:05;18.33;;;16.50;;
787;SDS011;16074;42.708;23.312;2023-05-14T13:08:33;17.80;;;16.10;;
787;SDS011;16074;42.708;23.312;2023-05-14T13:11:02;18.20;;;16.60;;
787;SDS011;16074;42.708;23.312;2023-05-14T13:13:30;18.02;;;16.38;;
787;SDS011;16074;42.708;23.312;2023-05-14T13:15:59;18.75;;;16.90;;
787;SDS011;16074;42.708;23.312;2023-05-14T13:18:27;19.35;;;17.58;;
787;SDS011;16074;42.708;23.312;2023-05-14T13:20:57;19.85;;;18.05;;
787;SDS011;16074;42.708;23.312;2023-05-14T13:23:25;20.90;;;18.73;;
787;SDS011;16074;42.708;23.312;2023-05-14T13:25:54;19.00;;;17.20;;
787;SDS011;16074;42.708;23.312;2023-05-14T13:28:22;19.63;;;17.73;;
787;SDS011;16074;42.708;23.312;2023-05-14T13:31:06;20.45;;;17.63;;
787;SDS011;16074;42.708;23.312;2023-05-14T13:33:36;18.80;;;17.20;;
787;SDS011;16074;42.708;23.312;2023-05-14T13:36:09;20.75;;;18.75;;
787;SDS011;16074;42.708;23.312;2023-05-14T13:38:38;19.75;;;17.85;;
787;SDS011;16074;42.708;23.312;2023-05-14T13:41:07;21.85;;;19.63;;
787;SDS011;16074;42.708;23.312;2023-05-14T13:43:35;21.63;;;19.33;;
787;SDS011;16074;42.708;23.312;2023-05-14T13:46:04;21.27;;;19.38;;
787;SDS011;16074;42.708;23.312;2023-05-14T13:48:32;21.50;;;19.13;;
787;SDS011;16074;42.708;23.312;2023-05-14T13:51:02;23.50;;;19.70;;
787;SDS011;16074;42.708;23.312;2023-05-14T13:53:31;22.70;;;20.48;;
787;SDS011;16074;42.708;23.312;2023-05-14T13:56:00;24.05;;;21.75;;
787;SDS011;16074;42.708;23.312;2023-05-14T13:58:28;22.55;;;20.25;;
787;SDS011;16074;42.708;23.312;2023-05-14T14:00:56;23.40;;;21.02;;
787;SDS011;16074;42.708;23.312;2023-05-14T14:03:25;23.42;;;21.02;;
787;SDS011;16074;42.708;23.312;2023-05-14T14:05:56;25.77;;;23.27;;
787;SDS011;16074;42.708;23.312;2023-05-14T14:08:24;25.27;;;22.65;;
787;SDS011;16074;42.708;23.312;2023-05-14T14:10:54;23.45;;;21.25;;
787;SDS011;16074;42.708;23.312;2023-05-14T14:13:22;24.70;;;22.30;;
787;SDS011;16074;42.708;23.312;2023-05-14T14:15:51;25.33;;;22.83;;
787;SDS011;16074;42.708;23.312;2023-05-14T14:18:20;23.88;;;21.48;;
787;SDS011;16074;42.708;23.312;2023-05-14T14:20:48;23.52;;;21.10;;
787;SDS011;16074;42.708;23.312;2023-05-14T14:23:16;27.77;;;23.33;;
787;SDS011;16074;42.708;23.312;2023-05-14T14:25:45;25.05;;;22.60;;
787;SDS011;16074;42.708;23.312;2023-05-14T14:28:15;25.52;;;22.92;;
787;SDS011;16074;42.708;23.312;2023-05-14T14:30:43;26.42;;;23.58;;
787;SDS011;16074;42.708;23.312;2023-05-14T14:33:11;25.10;;;22.60;;
787;SDS011;16074;42.708;23.312;2023-05-14T14:35:39;24.58;;;22.15;;
787;SDS011;16074;42.708;23.312;2023-05-14T14:38:08;25.63;;;22.45;;
787;SDS011;16074;42.708;23.312;2023-05-14T14:40:36;25.88;;;22.88;;
787;SDS011;16074;42.708;23.312;2023-05-14T14:43:04;25.73;;;23.27;;
787;SDS011;16074;42.708;23.312;2023-05-14T14:45:34;31.83;;;28.58;;
787;SDS011;16074;42.708;23.312;2023-05-14T14:50:49;30.40;;;27.25;;
787;SDS011;16074;42.708;23.312;2023-05-14T14:53:18;28.48;;;25.42;;
787;SDS011;16074;42.708;23.312;2023-05-14T14:55:46;24.63;;;22.05;;
787;SDS011;16074;42.708;23.312;2023-05-14T14:58:15;25.02;;;22.23;;
787;SDS011;16074;42.708;23.312;2023-05-14T15:00:44;25.92;;;23.15;;